Time;durP1;ratioP1;P1;durP2;ratioP2;P2;SDS_P1;SDS_P2;PMS_P1;PMS_P2;Temp;Humidity;BMP_temperature;BMP_pressure;BME280_temperature;BME280_humidity;BME280_pressure;Samples;Min_cycle;Max_cycle;Signal;HPM_P1;HPM_P2
2022/08/24 00:00:00;;;;;;;7.63;3.33;;;21.30;99.90;;;;;;4988100;28;20089;-60
2022/08/24 00:02:27;;;;;;;7.22;3.20;;;21.30;99.90;;;;;;4971159;28;20050;-60
2022/08/24 00:04:54;;;;;;;6.68;3.42;;;21.30;99.90;;;;;;4984592;28;20050;-60
2022/08/24 00:07:22;;;;;;;5.38;3.10;;;21.30;99.90;;;;;;4988442;28;20146;-59
2022/08/24 00:09:54;;;;;;;5.97;3.03;;;21.30;99.90;;;;;;4971516;28;20050;-60
2022/08/24 00:12:20;;;;;;;6.30;3.13;;;21.30;99.90;;;;;;4968130;28;20129;-59
2022/08/24 00:14:47;;;;;;;7.75;3.00;;;21.30;99.90;;;;;;4987764;28;20046;-60
2022/08/24 00:17:15;;;;;;;6.43;2.78;;;21.20;99.90;;;;;;4988036;28;20065;-61
2022/08/24 00:19:42;;;;;;;11.90;3.40;;;21.20;99.90;;;;;;4988004;28;20082;-60
2022/08/24 00:22:09;;;;;;;8.57;2.65;;;21.10;99.90;;;;;;4987209;28;20046;-61
2022/08/24 00:24:36;;;;;;;5.30;2.35;;;21.10;99.90;;;;;;4988053;28;20050;-60
2022/08/24 00:27:05;;;;;;;7.80;3.05;;;21.10;99.90;;;;;;4987777;28;20553;-61
2022/08/24 00:29:32;;;;;;;5.30;2.42;;;21.10;99.90;;;;;;4987946;28;20050;-61
2022/08/24 00:31:59;;;;;;;5.60;2.72;;;21.10;99.90;;;;;;4987789;28;20108;-59
2022/08/24 00:34:26;;;;;;;3.03;2.40;;;21.10;99.90;;;;;;4988522;28;20101;-61
2022/08/24 00:36:53;;;;;;;5.82;2.60;;;21.10;99.90;;;;;;4991414;28;20043;-61
2022/08/24 00:39:20;;;;;;;9.05;3.20;;;21.10;99.90;;;;;;4973998;28;20116;-61
2022/08/24 00:41:48;;;;;;;5.15;2.45;;;21.10;99.90;;;;;;4991322;28;20490;-61
2022/08/24 00:44:16;;;;;;;4.43;2.40;;;21.10;99.90;;;;;;4991286;28;20050;-60
2022/08/24 00:47:01;;;;;;;9.10;3.47;;;21.10;99.90;;;;;;4973913;28;20121;-60
2022/08/24 00:49:53;;;;;;;2.45;2.00;;;21.10;99.90;;;;;;4976815;28;20062;-61
2022/08/24 00:52:45;;;;;;;5.15;1.85;;;21.00;99.90;;;;;;4632496;28;9999805;-60
2022/08/24 00:55:22;;;;;;;2.85;1.60;;;21.10;99.90;;;;;;4970700;28;20141;-60
2022/08/24 00:57:50;;;;;;;5.40;1.90;;;21.00;99.90;;;;;;4973972;28;20074;-60
2022/08/24 01:00:22;;;;;;;4.22;1.90;;;21.10;99.90;;;;;;4991406;28;20129;-59
2022/08/24 01:02:53;;;;;;;3.97;1.88;;;21.10;99.90;;;;;;4991058;28;20553;-60
2022/08/24 01:05:20;;;;;;;4.10;1.63;;;21.10;99.90;;;;;;4990129;28;20109;-61
2022/08/24 01:07:49;;;;;;;2.05;1.48;;;21.10;99.90;;;;;;4972363;28;20142;-61
2022/08/24 01:10:19;;;;;;;3.10;1.65;;;21.10;99.90;;;;;;4991262;28;20094;-61
2022/08/24 01:12:47;;;;;;;4.10;1.60;;;21.10;99.90;;;;;;4973800;28;20150;-61
2022/08/24 01:15:31;;;;;;;3.17;1.65;;;21.10;99.90;;;;;;4961341;28;20046;-61
2022/08/24 01:20:45;;;;;;;4.10;1.63;;;21.20;99.90;;;;;;4976232;28;20066;-60
2022/08/24 01:23:39;;;;;;;3.30;1.73;;;21.20;99.90;;;;;;4990591;28;20062;-61
2022/08/24 01:26:08;;;;;;;1.52;1.17;;;21.20;99.90;;;;;;4990580;28;20113;-60
2022/08/24 01:28:38;;;;;;;4.30;1.75;;;21.20;99.90;;;;;;4973531;28;20046;-61
2022/08/24 01:31:06;;;;;;;4.95;2.08;;;21.10;99.90;;;;;;4973983;28;20046;-60
2022/08/24 01:33:33;;;;;;;3.45;1.88;;;21.10;99.90;;;;;;4990548;28;20522;-60
2022/08/24 01:36:08;;;;;;;6.00;1.90;;;21.20;99.90;;;;;;4991010;28;20136;-60
2022/08/24 01:38:35;;;;;;;3.05;1.73;;;21.20;99.90;;;;;;4965868;28;20108;-60
2022/08/24 01:41:03;;;;;;;9.20;2.10;;;21.20;99.90;;;;;;4973539;28;20228;-60
2022/08/24 01:43:29;;;;;;;3.67;1.85;;;21.20;99.90;;;;;;4990580;28;20175;-61
2022/08/24 01:45:59;;;;;;;3.60;1.27;;;21.20;99.90;;;;;;4989872;28;20112;-60
2022/08/24 01:48:30;;;;;;;3.70;1.27;;;21.20;99.90;;;;;;4990577;28;20074;-60
2022/08/24 01:50:57;;;;;;;2.38;1.20;;;21.20;99.90;;;;;;4990681;28;20050;-63
2022/08/24 01:53:23;;;;;;;2.50;1.50;;;21.20;99.90;;;;;;4990169;28;20559;-62
2022/08/24 01:55:50;;;;;;;2.00;1.15;;;21.20;99.90;;;;;;4990576;28;20053;-61
2022/08/24 01:58:17;;;;;;;2.30;1.00;;;21.10;99.90;;;;;;4990612;28;20078;-61
2022/08/24 02:00:44;;;;;;;2.60;1.38;;;21.00;99.90;;;;;;4990623;28;20050;-61
2022/08/24 02:03:11;;;;;;;3.17;1.15;;;21.10;99.90;;;;;;4972679;28;20142;-62
2022/08/24 02:05:38;;;;;;;2.00;1.15;;;21.10;99.90;;;;;;4990255;28;20050;-61
2022/08/24 02:08:05;;;;;;;1.67;0.75;;;21.10;99.90;;;;;;4990215;28;20073;-61
2022/08/24 02:10:32;;;;;;;3.47;1.10;;;21.10;99.90;;;;;;4990005;28;20053;-61
2022/08/24 02:12:58;;;;;;;1.52;0.95;;;21.10;99.90;;;;;;4990310;28;20129;-66
2022/08/24 02:15:31;;;;;;;2.70;0.98;;;21.00;99.90;;;;;;4972700;28;20078;-60
2022/08/24 02:17:58;;;;;;;3.22;0.98;;;21.00;99.90;;;;;;4990023;28;20121;-61
2022/08/24 02:20:24;;;;;;;3.65;1.02;;;21.00;99.90;;;;;;4989799;28;20571;-61
2022/08/24 02:22:52;;;;;;;1.77;1.08;;;21.10;99.90;;;;;;4972913;28;20134;-61
2022/08/24 02:25:19;;;;;;;4.88;1.20;;;21.10;99.90;;;;;;4972478;28;20054;-61
2022/08/24 02:27:45;;;;;;;1.73;1.00;;;21.10;99.90;;;;;;4990018;28;20156;-61
2022/08/24 02:30:12;;;;;;;2.08;1.20;;;21.10;99.90;;;;;;4989682;28;20047;-62
2022/08/24 02:32:40;;;;;;;2.30;1.00;;;21.10;99.90;;;;;;4989881;28;20046;-61
2022/08/24 02:35:08;;;;;;;1.90;1.25;;;21.10;99.90;;;;;;4972184;28;20112;-62
2022/08/24 02:37:34;;;;;;;1.92;1.48;;;21.10;99.90;;;;;;4972325;28;20561;-60
2022/08/24 02:40:09;;;;;;;2.40;0.88;;;21.10;99.90;;;;;;4970644;28;20149;-61
2022/08/24 02:42:36;;;;;;;1.40;1.00;;;21.10;99.90;;;;;;4989896;28;20046;-60
2022/08/24 02:45:04;;;;;;;2.28;1.25;;;21.10;99.90;;;;;;4989114;28;20690;-61
2022/08/24 02:47:30;;;;;;;4.30;2.35;;;21.10;99.90;;;;;;4986204;28;20100;-61
2022/08/24 02:50:06;;;;;;;3.42;1.50;;;21.10;99.90;;;;;;4989637;28;20104;-61
2022/08/24 02:52:34;;;;;;;2.53;1.50;;;21.10;99.90;;;;;;4967750;28;20070;-61
2022/08/24 02:55:01;;;;;;;3.88;1.17;;;21.10;99.90;;;;;;4989359;28;20050;-61
2022/08/24 02:57:28;;;;;;;5.50;1.33;;;21.10;99.90;;;;;;4987859;28;20078;-61
2022/08/24 02:59:55;;;;;;;5.00;1.75;;;21.10;99.90;;;;;;4989189;28;20050;-62
2022/08/24 03:02:22;;;;;;;6.20;2.55;;;21.10;99.90;;;;;;4989039;28;20482;-62
2022/08/24 03:04:49;;;;;;;3.63;1.83;;;21.00;99.90;;;;;;4989065;28;20133;-61
2022/08/24 03:07:15;;;;;;;4.57;1.67;;;21.00;99.90;;;;;;4971929;28;20085;-61
2022/08/24 03:09:42;;;;;;;5.57;2.58;;;20.90;99.90;;;;;;4989260;28;20077;-62
2022/08/24 03:12:09;;;;;;;8.55;2.17;;;20.90;99.90;;;;;;4988955;28;20093;-61
2022/08/24 03:14:36;;;;;;;3.22;2.03;;;20.90;99.90;;;;;;4988854;28;20077;-60
2022/08/24 03:17:03;;;;;;;4.53;1.73;;;20.80;99.90;;;;;;4988915;28;20050;-60
2022/08/24 03:19:30;;;;;;;2.72;1.40;;;20.80;99.90;;;;;;4988763;28;20541;-61
2022/08/24 03:21:57;;;;;;;4.38;1.60;;;20.80;99.90;;;;;;4988685;28;20096;-60
2022/08/24 03:24:24;;;;;;;3.22;1.90;;;20.80;99.90;;;;;;4988718;28;20038;-59
2022/08/24 03:26:50;;;;;;;5.00;1.58;;;20.80;99.90;;;;;;4988691;28;20078;-60
2022/08/24 03:29:17;;;;;;;2.67;1.52;;;20.80;99.90;;;;;;4988736;28;20454;-61
2022/08/24 03:31:45;;;;;;;4.68;2.25;;;20.80;99.90;;;;;;4988526;28;20592;-61
2022/08/24 03:34:12;;;;;;;2.83;1.63;;;20.80;99.90;;;;;;4988877;28;20379;-60
2022/08/24 03:36:40;;;;;;;5.88;1.27;;;20.70;99.90;;;;;;4988661;28;20096;-61
2022/08/24 03:39:06;;;;;;;2.55;1.20;;;20.70;99.90;;;;;;4987913;28;20042;-60
2022/08/24 03:41:33;;;;;;;4.55;1.90;;;20.80;99.90;;;;;;4988754;28;20062;-61
2022/08/24 03:44:02;;;;;;;2.08;1.40;;;20.80;99.90;;;;;;4987539;28;20046;-61
2022/08/24 03:46:34;;;;;;;5.63;1.67;;;20.80;99.90;;;;;;4988878;28;20093;-61
2022/08/24 03:49:01;;;;;;;5.55;1.52;;;20.80;99.90;;;;;;4988549;28;20078;-61
2022/08/24 03:51:28;;;;;;;3.42;1.35;;;20.70;99.90;;;;;;4988734;28;20046;-60
2022/08/24 03:53:57;;;;;;;4.47;1.73;;;20.80;99.90;;;;;;4988636;28;20054;-60
2022/08/24 03:56:24;;;;;;;6.25;2.00;;;20.80;99.90;;;;;;4988381;28;20501;-61
2022/08/24 03:58:51;;;;;;;4.18;1.73;;;20.80;99.90;;;;;;4988350;28;20042;-61
2022/08/24 04:01:18;;;;;;;5.28;2.00;;;20.70;99.90;;;;;;4971440;28;20074;-61
2022/08/24 04:03:46;;;;;;;6.85;2.55;;;20.70;99.90;;;;;;4985883;28;20105;-60
2022/08/24 04:06:14;;;;;;;5.40;3.17;;;20.70;99.90;;;;;;4971044;28;20494;-61
2022/08/24 04:08:41;;;;;;;4.53;2.15;;;20.70;99.90;;;;;;4988300;28;20073;-60
2022/08/24 04:11:27;;;;;;;5.38;2.72;;;20.70;99.90;;;;;;4992083;28;20074;-61
2022/08/24 04:13:55;;;;;;;6.40;2.80;;;20.70;99.90;;;;;;4984959;28;20116;-61
2022/08/24 04:16:23;;;;;;;6.70;2.22;;;20.70;99.90;;;;;;4992392;28;20077;-60
2022/08/24 04:18:50;;;;;;;4.55;2.88;;;20.70;99.90;;;;;;4981426;28;20042;-61
2022/08/24 04:21:25;;;;;;;2.83;2.33;;;20.70;99.90;;;;;;4992300;28;20085;-61
2022/08/24 04:23:52;;;;;;;9.73;2.85;;;20.60;99.90;;;;;;4991901;28;20066;-60
2022/08/24 04:26:20;;;;;;;7.53;3.13;;;20.70;99.90;;;;;;4992384;28;20117;-62
2022/08/24 04:29:10;;;;;;;3.00;1.80;;;20.70;99.90;;;;;;4992110;28;20052;-61
2022/08/24 04:31:38;;;;;;;5.93;2.85;;;20.60;99.90;;;;;;4992005;28;20042;-61
2022/08/24 04:34:05;;;;;;;4.65;2.58;;;20.60;99.90;;;;;;4980880;28;20047;-61
2022/08/24 04:36:32;;;;;;;3.67;1.98;;;20.70;99.90;;;;;;4974779;28;20050;-60
2022/08/24 04:38:59;;;;;;;6.25;2.05;;;20.60;99.90;;;;;;4991603;28;20085;-62
2022/08/24 04:41:26;;;;;;;4.50;2.03;;;20.60;99.90;;;;;;4991828;28;20101;-61
2022/08/24 04:43:58;;;;;;;4.07;2.78;;;20.60;99.90;;;;;;4991637;28;20443;-61
2022/08/24 04:46:25;;;;;;;4.47;2.05;;;20.60;99.90;;;;;;4991730;28;20050;-61
2022/08/24 04:48:51;;;;;;;7.75;2.22;;;20.60;99.90;;;;;;4991696;28;20050;-61
2022/08/24 04:51:18;;;;;;;6.85;2.40;;;20.70;99.90;;;;;;4991727;28;20137;-61
2022/08/24 04:53:46;;;;;;;10.68;2.08;;;20.70;99.90;;;;;;4991793;28;20097;-60
2022/08/24 04:56:15;;;;;;;8.32;2.30;;;20.70;99.90;;;;;;4991265;28;20062;-60
2022/08/24 04:58:43;;;;;;;2.90;2.05;;;20.70;99.90;;;;;;4991535;28;20142;-61
2022/08/24 05:01:14;;;;;;;5.80;2.33;;;20.70;99.90;;;;;;4991284;28;20509;-63
2022/08/24 05:03:44;;;;;;;4.03;2.42;;;20.70;99.90;;;;;;4991262;28;20050;-60
2022/08/24 05:06:12;;;;;;;7.22;2.40;;;20.70;99.90;;;;;;4991581;28;20115;-61
2022/08/24 05:08:39;;;;;;;2.63;1.90;;;20.70;99.90;;;;;;4991618;28;20070;-61
2022/08/24 05:11:07;;;;;;;7.25;3.38;;;20.80;99.90;;;;;;4991195;28;20042;-61
2022/08/24 05:13:36;;;;;;;7.22;2.40;;;20.80;99.90;;;;;;4991301;28;20050;-60
2022/08/24 05:16:08;;;;;;;5.95;2.30;;;20.80;99.90;;;;;;4974168;28;20046;-60
2022/08/24 05:18:35;;;;;;;3.83;1.73;;;20.80;99.90;;;;;;4991178;28;20042;-60
2022/08/24 05:21:02;;;;;;;4.97;2.42;;;20.90;99.90;;;;;;4989461;28;20455;-62
2022/08/24 05:23:29;;;;;;;4.90;1.85;;;20.90;99.90;;;;;;4973533;28;20050;-62
2022/08/24 05:26:24;;;;;;;4.32;1.70;;;20.90;99.90;;;;;;4990686;28;20494;-61
2022/08/24 05:29:00;;;;;;;5.28;2.10;;;20.90;99.90;;;;;;4988644;28;20125;-61
2022/08/24 05:31:29;;;;;;;4.97;1.92;;;21.00;99.90;;;;;;4990863;28;20093;-61
2022/08/24 05:33:57;;;;;;;3.20;1.90;;;21.00;99.90;;;;;;4973660;28;20052;-61
2022/08/24 05:36:26;;;;;;;4.95;2.10;;;21.00;99.90;;;;;;4963997;28;20141;-60
2022/08/24 05:38:55;;;;;;;6.25;1.95;;;21.10;99.90;;;;;;4991015;28;20042;-61
2022/08/24 05:41:23;;;;;;;3.42;2.15;;;21.10;99.90;;;;;;4990678;28;20306;-61
2022/08/24 05:43:50;;;;;;;3.17;1.58;;;21.10;99.90;;;;;;4979914;28;20517;-63
2022/08/24 05:46:17;;;;;;;6.75;1.90;;;21.20;99.90;;;;;;4987059;28;20746;-60
2022/08/24 05:48:46;;;;;;;6.53;1.80;;;21.20;99.90;;;;;;4990672;28;20046;-61
2022/08/24 05:51:19;;;;;;;4.33;1.80;;;21.20;99.90;;;;;;4990308;28;20042;-60
2022/08/24 05:53:46;;;;;;;5.15;2.25;;;21.20;99.90;;;;;;4973406;28;20823;-61
2022/08/24 05:56:13;;;;;;;4.38;2.13;;;21.20;99.90;;;;;;4990159;28;20096;-61
2022/08/24 05:58:40;;;;;;;8.55;2.13;;;21.20;99.90;;;;;;4990486;28;20092;-64
2022/08/24 06:01:21;;;;;;;10.32;2.80;;;21.20;99.90;;;;;;4989954;28;20050;-60
2022/08/24 06:03:48;;;;;;;7.82;2.55;;;21.20;99.90;;;;;;4973601;28;20051;-59
2022/08/24 06:06:15;;;;;;;6.80;1.98;;;21.20;99.90;;;;;;4990412;28;20050;-61
2022/08/24 06:08:45;;;;;;;4.20;2.15;;;21.20;99.90;;;;;;4990190;28;20042;-61
2022/08/24 06:11:23;;;;;;;7.78;1.92;;;21.20;99.90;;;;;;4990429;28;20454;-61
2022/08/24 06:14:01;;;;;;;8.10;1.92;;;21.20;99.90;;;;;;4974979;28;20242;-60
2022/08/24 06:16:36;;;;;;;4.93;1.88;;;21.20;99.90;;;;;;4990445;28;20054;-62
2022/08/24 06:19:04;;;;;;;4.63;1.90;;;21.20;99.90;;;;;;4989270;28;20407;-61
2022/08/24 06:21:31;;;;;;;4.60;2.08;;;21.20;99.90;;;;;;4989854;28;20501;-61
2022/08/24 06:23:58;;;;;;;5.45;1.98;;;21.20;99.90;;;;;;4989642;28;20078;-62
2022/08/24 06:29:16;;;;;;;5.25;1.65;;;21.20;99.90;;;;;;4989979;28;20050;-62
2022/08/24 06:31:44;;;;;;;3.53;1.92;;;21.20;99.90;;;;;;4982118;28;20088;-60
2022/08/24 06:34:13;;;;;;;3.58;1.80;;;21.20;99.90;;;;;;4984892;28;20517;-60
2022/08/24 06:36:40;;;;;;;4.68;1.90;;;21.30;99.90;;;;;;4964479;28;20101;-60
2022/08/24 06:39:08;;;;;;;6.15;1.65;;;21.30;99.90;;;;;;4989322;28;20559;-60
2022/08/24 06:41:38;;;;;;;5.75;1.70;;;21.20;99.90;;;;;;4989387;28;20089;-62
2022/08/24 06:44:06;;;;;;;5.15;2.13;;;21.40;99.90;;;;;;4989275;28;20081;-61
2022/08/24 06:46:35;;;;;;;4.65;1.63;;;21.30;99.90;;;;;;4989160;28;20512;-62
2022/08/24 06:49:02;;;;;;;3.40;1.48;;;21.40;99.90;;;;;;4971848;28;20096;-61
2022/08/24 06:51:30;;;;;;;4.78;1.50;;;21.40;99.90;;;;;;4968358;28;20118;-61
2022/08/24 06:53:57;;;;;;;3.67;1.83;;;21.40;99.90;;;;;;4985154;28;20042;-60
2022/08/24 06:56:24;;;;;;;5.97;1.67;;;21.40;99.90;;;;;;4989069;28;20085;-62
2022/08/24 06:58:51;;;;;;;2.70;1.23;;;21.40;99.90;;;;;;4989325;28;20046;-61
2022/08/24 07:01:23;;;;;;;4.60;1.58;;;21.40;99.90;;;;;;4971586;28;20085;-60
2022/08/24 07:03:50;;;;;;;3.08;1.30;;;21.50;99.90;;;;;;4985265;28;20062;-62
2022/08/24 07:06:17;;;;;;;1.83;1.25;;;21.50;99.90;;;;;;4989199;28;20093;-60
2022/08/24 07:08:44;;;;;;;5.70;1.30;;;21.50;99.90;;;;;;4979029;28;20030;-60
2022/08/24 07:11:16;;;;;;;4.93;1.52;;;21.50;99.90;;;;;;4971741;28;20054;-61
2022/08/24 07:13:46;;;;;;;4.05;1.63;;;21.60;99.90;;;;;;4988813;28;20113;-61
2022/08/24 07:16:14;;;;;;;6.47;1.15;;;21.50;99.90;;;;;;4988685;28;20069;-61
2022/08/24 07:18:41;;;;;;;1.88;1.38;;;21.50;99.90;;;;;;4989023;28;20050;-61
2022/08/24 07:21:13;;;;;;;3.35;1.33;;;21.50;99.90;;;;;;4988594;28;20054;-61
2022/08/24 07:23:40;;;;;;;3.08;1.02;;;21.50;99.90;;;;;;4971740;28;20105;-60
2022/08/24 07:26:13;;;;;;;1.50;1.30;;;21.50;99.90;;;;;;4988701;28;20508;-59
2022/08/24 07:29:00;;;;;;;3.78;1.63;;;21.50;99.90;;;;;;4982976;28;20050;-61
2022/08/24 07:31:27;;;;;;;3.85;1.58;;;21.50;99.90;;;;;;4987301;28;20050;-61
2022/08/24 07:34:00;;;;;;;2.47;1.27;;;21.50;99.90;;;;;;4988774;28;20701;-62
2022/08/24 07:36:27;;;;;;;3.17;1.15;;;21.60;99.90;;;;;;4988293;28;20497;-62
2022/08/24 07:38:55;;;;;;;3.15;1.27;;;21.60;99.90;;;;;;4987061;28;20050;-61
2022/08/24 07:41:22;;;;;;;4.97;1.58;;;21.70;99.90;;;;;;4971158;28;20082;-61
2022/08/24 07:44:09;;;;;;;5.05;1.30;;;21.80;99.90;;;;;;4980633;28;20050;-61
2022/08/24 07:46:37;;;;;;;7.05;2.20;;;21.80;99.90;;;;;;4988217;28;20082;-61
2022/08/24 07:49:06;;;;;;;3.85;1.48;;;22.00;99.90;;;;;;4987287;28;20073;-60
2022/08/24 07:51:45;;;;;;;9.30;1.80;;;22.00;99.90;;;;;;4985467;28;20052;-61
2022/08/24 07:54:12;;;;;;;8.95;2.15;;;22.00;99.90;;;;;;4987309;28;20149;-60
2022/08/24 07:56:55;;;;;;;6.13;1.98;;;22.10;99.90;;;;;;4977170;28;20050;-61
2022/08/24 07:59:22;;;;;;;4.60;1.77;;;22.20;99.90;;;;;;4609935;28;9999908;-59
2022/08/24 08:01:52;;;;;;;3.58;1.75;;;22.20;99.90;;;;;;4979634;28;20043;-59
2022/08/24 08:04:23;;;;;;;3.70;1.40;;;22.20;99.90;;;;;;4984833;28;20310;-60
2022/08/24 08:06:50;;;;;;;5.10;1.45;;;22.30;99.90;;;;;;4985981;28;20120;-59
2022/08/24 08:09:17;;;;;;;4.95;1.48;;;22.30;99.90;;;;;;4985200;28;20497;-60
2022/08/24 08:11:44;;;;;;;6.32;1.60;;;22.30;99.90;;;;;;4985161;28;20054;-58
2022/08/24 08:14:13;;;;;;;5.10;1.38;;;22.30;99.90;;;;;;4985292;28;20109;-60
2022/08/24 08:16:40;;;;;;;10.60;1.92;;;22.40;99.90;;;;;;4968440;28;20054;-59
2022/08/24 08:19:07;;;;;;;6.00;1.98;;;22.50;99.90;;;;;;4985897;28;20083;-59
2022/08/24 08:24:33;;;;;;;4.28;1.42;;;22.70;99.90;;;;;;4977482;28;20501;-60
2022/08/24 08:27:00;;;;;;;4.78;1.65;;;22.80;99.90;;;;;;4985406;28;20058;-60
2022/08/24 08:29:28;;;;;;;4.72;1.88;;;22.90;99.90;;;;;;4985609;28;20058;-62
2022/08/24 08:31:54;;;;;;;5.55;1.60;;;22.90;99.90;;;;;;4951714;28;20051;-60
2022/08/24 08:34:21;;;;;;;4.07;2.00;;;23.00;99.90;;;;;;4985335;28;20502;-60
2022/08/24 08:36:48;;;;;;;5.40;1.70;;;23.00;99.90;;;;;;4985100;28;20138;-61
2022/08/24 08:39:16;;;;;;;6.95;1.67;;;23.00;99.90;;;;;;4985678;28;20050;-60
2022/08/24 08:42:13;;;;;;;4.57;1.77;;;23.00;99.90;;;;;;4967919;28;20062;-60
2022/08/24 08:44:43;;;;;;;6.63;1.23;;;22.90;99.90;;;;;;4968530;28;20051;-62
2022/08/24 08:47:19;;;;;;;2.75;1.23;;;22.90;99.90;;;;;;4974383;28;20169;-60
2022/08/24 08:50:01;;;;;;;5.85;1.25;;;23.00;99.90;;;;;;4985263;28;20641;-61
2022/08/24 08:52:33;;;;;;;3.92;1.60;;;22.90;99.90;;;;;;4981767;28;20078;-60
2022/08/24 08:55:07;;;;;;;5.88;1.67;;;22.90;99.90;;;;;;4970206;28;20069;-60
2022/08/24 08:57:53;;;;;;;3.05;1.38;;;23.00;99.90;;;;;;4990593;28;20105;-59
2022/08/24 09:00:24;;;;;;;4.68;1.45;;;23.10;99.90;;;;;;4991356;28;20145;-59
2022/08/24 09:03:06;;;;;;;2.42;1.45;;;23.20;99.90;;;;;;4986479;28;20095;-59
2022/08/24 09:06:01;;;;;;;6.05;1.80;;;23.30;99.90;;;;;;4980305;28;20082;-62
2022/08/24 09:08:48;;;;;;;4.22;1.25;;;23.30;99.90;;;;;;4981262;28;20054;-61
2022/08/24 09:11:17;;;;;;;5.75;1.40;;;23.50;99.90;;;;;;4991013;28;20062;-61
2022/08/24 09:14:27;;;;;;;5.40;1.60;;;23.50;99.90;;;;;;4973422;28;20135;-60
2022/08/24 09:17:15;;;;;;;3.65;1.10;;;23.60;99.90;;;;;;4965907;28;20089;-60
2022/08/24 09:19:58;;;;;;;2.65;1.20;;;23.60;99.90;;;;;;4990481;28;20436;-60
2022/08/24 09:22:25;;;;;;;3.72;1.20;;;23.60;99.90;;;;;;4974635;28;20054;-60
2022/08/24 09:24:51;;;;;;;2.50;1.30;;;23.70;99.90;;;;;;4990283;28;20308;-60
2022/08/24 09:27:31;;;;;;;5.60;1.88;;;23.90;99.90;;;;;;4990740;28;20093;-59
2022/08/24 09:30:17;;;;;;;4.20;1.33;;;24.10;99.90;;;;;;4990419;28;20096;-60
2022/08/24 09:32:54;;;;;;;1.38;0.85;;;24.20;99.90;;;;;;4990406;28;20505;-61
2022/08/24 09:35:32;;;;;;;4.75;1.38;;;24.30;99.90;;;;;;4973726;28;20093;-59
2022/08/24 09:38:08;;;;;;;4.65;1.52;;;24.30;99.90;;;;;;4983815;28;20129;-60
2022/08/24 09:40:39;;;;;;;2.97;1.10;;;24.30;99.90;;;;;;4987742;28;20046;-59
2022/08/24 09:43:42;;;;;;;4.50;1.50;;;24.40;99.90;;;;;;4973484;28;20077;-60
2022/08/24 09:46:40;;;;;;;9.13;1.45;;;24.60;99.90;;;;;;4989337;28;20080;-60
2022/08/24 09:49:44;;;;;;;4.43;1.30;;;24.90;99.90;;;;;;4966957;28;20097;-57
2022/08/24 09:52:51;;;;;;;4.05;1.00;;;25.20;99.90;;;;;;4980600;28;20054;-61
2022/08/24 09:55:54;;;;;;;3.85;1.35;;;25.30;99.90;;;;;;4954876;28;20052;-59
2022/08/24 09:58:38;;;;;;;5.47;1.48;;;25.50;99.90;;;;;;4923511;28;20144;-59
2022/08/24 10:01:24;;;;;;;3.75;0.82;;;25.70;99.90;;;;;;4984937;28;20146;-60
2022/08/24 10:04:11;;;;;;;2.95;1.10;;;25.70;99.90;;;;;;4979991;28;20178;-62
2022/08/24 10:06:53;;;;;;;2.17;0.90;;;25.70;99.90;;;;;;4967888;28;20410;-60
2022/08/24 10:09:47;;;;;;;1.25;0.88;;;25.90;99.90;;;;;;4984339;28;20148;-62
2022/08/24 10:12:27;;;;;;;4.35;1.00;;;25.70;99.90;;;;;;4985641;28;20050;-59
2022/08/24 10:15:03;;;;;;;2.05;0.98;;;25.40;99.90;;;;;;4990265;28;20551;-60
2022/08/24 10:17:42;;;;;;;3.70;1.05;;;25.30;99.90;;;;;;4970313;28;20053;-60
2022/08/24 10:20:25;;;;;;;5.10;1.20;;;25.40;99.90;;;;;;4972646;28;20070;-60
2022/08/24 10:22:52;;;;;;;3.10;0.98;;;25.40;99.90;;;;;;4981797;28;20149;-60
2022/08/24 10:25:56;;;;;;;4.07;0.85;;;25.40;99.90;;;;;;4989320;28;20100;-61
2022/08/24 10:28:51;;;;;;;6.20;1.02;;;25.30;99.90;;;;;;4979412;28;20529;-59
2022/08/24 10:31:37;;;;;;;3.40;0.90;;;25.40;99.90;;;;;;4977344;28;20054;-59
2022/08/24 10:34:26;;;;;;;1.50;0.60;;;25.50;99.90;;;;;;4964275;28;20066;-62
2022/08/24 10:37:37;;;;;;;4.25;0.93;;;25.60;99.90;;;;;;4986222;28;20050;-60
2022/08/24 10:40:36;;;;;;;3.67;0.88;;;25.70;99.90;;;;;;4902539;29;20060;-61
2022/08/24 10:43:32;;;;;;;3.28;1.00;;;25.70;99.90;;;;;;4888221;29;20501;-62
2022/08/24 10:46:01;;;;;;;7.13;0.98;;;25.90;99.90;;;;;;4965565;28;20655;-60
2022/08/24 10:48:28;;;;;;;2.80;0.90;;;26.10;99.90;;;;;;4967124;28;21139;-61
2022/08/24 10:51:17;;;;;;;2.35;0.88;;;26.20;99.90;;;;;;4982811;28;20559;-58
2022/08/24 10:53:51;;;;;;;6.10;1.45;;;26.10;99.90;;;;;;4639997;28;10000011;-59
2022/08/24 10:56:44;;;;;;;1.65;1.00;;;26.10;99.90;;;;;;4965138;28;20077;-62
2022/08/24 10:59:35;;;;;;;2.33;0.80;;;26.00;99.90;;;;;;4987926;28;20090;-61
2022/08/24 11:02:25;;;;;;;7.80;1.40;;;25.90;99.90;;;;;;4986663;28;20097;-61
2022/08/24 11:04:56;;;;;;;1.35;0.85;;;25.90;99.90;;;;;;4981549;28;20051;-61
2022/08/24 11:07:23;;;;;;;1.23;1.13;;;25.90;99.90;;;;;;4979029;28;20132;-61
2022/08/24 11:09:58;;;;;;;3.60;1.40;;;25.90;99.90;;;;;;4989066;28;20082;-60
2022/08/24 11:12:29;;;;;;;4.03;1.77;;;26.10;99.90;;;;;;4988993;28;20585;-61
2022/08/24 11:14:58;;;;;;;6.05;2.40;;;26.30;99.90;;;;;;4979412;28;20097;-60
2022/08/24 11:17:27;;;;;;;3.47;1.85;;;26.40;99.90;;;;;;4972004;28;20081;-61
2022/08/24 11:19:55;;;;;;;4.78;2.00;;;26.40;99.90;;;;;;4988993;28;20560;-61
2022/08/24 11:22:30;;;;;;;3.17;1.40;;;26.50;99.90;;;;;;4989312;28;20141;-61
2022/08/24 11:25:00;;;;;;;1.98;1.38;;;26.60;99.90;;;;;;4989476;28;20043;-61
2022/08/24 11:27:29;;;;;;;2.75;1.20;;;26.80;99.90;;;;;;4988937;28;20042;-59
2022/08/24 11:29:59;;;;;;;3.97;1.27;;;26.90;99.90;;;;;;4957941;28;20038;-59
2022/08/24 11:32:41;;;;;;;3.30;1.05;;;27.00;99.90;;;;;;4971319;28;20073;-61
2022/08/24 11:35:14;;;;;;;6.85;1.45;;;27.10;97.70;;;;;;4985803;28;20073;-60
2022/08/24 11:37:42;;;;;;;1.58;1.13;;;27.20;99.30;;;;;;4988460;28;20160;-61
2022/08/24 11:40:09;;;;;;;2.38;1.15;;;27.20;98.60;;;;;;4971553;28;20069;-62
2022/08/24 11:42:45;;;;;;;2.00;1.10;;;27.10;96.20;;;;;;4988865;28;20050;-61
2022/08/24 11:45:27;;;;;;;5.13;0.90;;;27.00;94.60;;;;;;4979799;28;20133;-60
2022/08/24 11:48:02;;;;;;;1.42;0.90;;;27.10;93.60;;;;;;4988460;28;20058;-60
2022/08/24 11:50:42;;;;;;;7.47;1.15;;;27.20;94.80;;;;;;4955548;28;20054;-61
2022/08/24 11:53:15;;;;;;;2.08;1.08;;;27.20;95.50;;;;;;4988469;28;20085;-61
2022/08/24 11:56:09;;;;;;;2.28;0.82;;;27.20;94.80;;;;;;4988379;28;20074;-60
2022/08/24 11:58:56;;;;;;;2.80;0.80;;;27.10;92.50;;;;;;4951899;28;20077;-61
2022/08/24 12:01:33;;;;;;;1.45;0.98;;;27.10;92.50;;;;;;4988635;28;20081;-61
2022/08/24 12:04:16;;;;;;;2.78;1.40;;;27.10;94.10;;;;;;4972124;28;20042;-61
2022/08/24 12:06:53;;;;;;;3.35;1.08;;;27.00;93.30;;;;;;4972047;28;20489;-61
2022/08/24 12:09:38;;;;;;;4.95;1.50;;;27.10;94.70;;;;;;4971321;28;20065;-61
2022/08/24 12:12:20;;;;;;;;;;;27.40;94.10;;;;;;4971758;28;20046;-60
2022/08/24 12:15:09;;;;;;;2.70;1.23;;;27.60;92.10;;;;;;4979864;28;19960;-60
2022/08/24 12:17:40;;;;;;;5.28;1.50;;;27.60;90.00;;;;;;4988320;28;20090;-60
2022/08/24 12:20:26;;;;;;;2.90;1.10;;;27.50;91.40;;;;;;4984539;28;20086;-61
2022/08/24 12:22:55;;;;;;;1.90;0.90;;;27.50;91.90;;;;;;4966848;28;20493;-61
2022/08/24 12:28:09;;;;;;;5.20;1.08;;;27.60;93.40;;;;;;4972956;28;20077;-60
2022/08/24 12:30:35;;;;;;;3.63;1.33;;;27.70;93.50;;;;;;4970549;28;20046;-61
2022/08/24 12:33:06;;;;;;;0.68;0.68;;;27.70;92.00;;;;;;4990361;28;20117;-61
2022/08/24 12:35:45;;;;;;;1.80;1.00;;;27.70;90.40;;;;;;4959511;28;20054;-61
2022/08/24 12:38:23;;;;;;;2.08;1.20;;;27.60;90.40;;;;;;4990211;28;20054;-61
2022/08/24 12:41:02;;;;;;;2.47;1.23;;;27.60;91.80;;;;;;4990044;28;20126;-60
2022/08/24 12:44:08;;;;;;;1.70;1.30;;;27.70;91.70;;;;;;4975914;28;20573;-61
2022/08/24 12:46:35;;;;;;;3.08;1.02;;;27.60;90.10;;;;;;4975096;28;20054;-61
2022/08/24 12:49:24;;;;;;;6.75;1.30;;;27.60;92.30;;;;;;4974591;28;20129;-61
2022/08/24 12:52:19;;;;;;;2.00;1.40;;;27.60;92.40;;;;;;4991564;28;20050;-59
2022/08/24 12:55:38;;;;;;;1.35;1.05;;;27.80;90.80;;;;;;4987007;28;20104;-61
2022/08/24 12:58:07;;;;;;;2.08;0.85;;;28.00;89.20;;;;;;4955453;28;20057;-61
2022/08/24 13:00:54;;;;;;;1.35;0.75;;;28.00;87.10;;;;;;4990594;28;20236;-61
2022/08/24 13:03:29;;;;;;;1.60;0.90;;;27.90;89.40;;;;;;4973744;28;20062;-61
2022/08/24 13:05:59;;;;;;;4.30;1.38;;;27.90;89.30;;;;;;4987688;28;20069;-60
2022/08/24 13:08:43;;;;;;;12.27;1.77;;;28.20;89.80;;;;;;4984047;28;20132;-61
2022/08/24 13:11:29;;;;;;;1.98;1.13;;;28.30;85.90;;;;;;4988737;28;20069;-61
2022/08/24 13:13:56;;;;;;;1.75;0.88;;;28.30;84.90;;;;;;4956941;28;20092;-61
2022/08/24 13:16:44;;;;;;;2.75;1.23;;;28.40;89.50;;;;;;4990554;28;20080;-63
2022/08/24 13:19:16;;;;;;;2.67;1.02;;;28.20;86.90;;;;;;4980922;28;20520;-62
2022/08/24 13:21:45;;;;;;;1.88;1.10;;;28.20;90.30;;;;;;4990161;28;20073;-62
2022/08/24 13:24:28;;;;;;;3.00;0.93;;;28.20;90.70;;;;;;4961804;28;20051;-61
2022/08/24 13:26:56;;;;;;;2.20;1.10;;;28.20;87.80;;;;;;4990360;28;20042;-61